Accueil
METAR-TAF:

METAR-TAF

Aéroports :

Aéroport de Hiroshima

Hiroshima, Japon

latitude: 34-26N, longitude: 132-55E, altitude: 331 m

Observation

Le bulletin a été fait il y a 1 heure et 18 minutes, à 15:00 UTC
Vent 4 kt de ouest, variant entre ouest/sud-ouest et nord
Température 21°C
Humidité 83%
Pression 1008 hPa
Visibilité 10 km ou plus

METAR: RJOA 141500Z AUTO 28004KT 250V010 9999 NSC 21/18 Q1008

Heure: 01:18 (16:18 UTC)

Prévision

Le bulletin a été fait il y a 5 heures et 13 minutes, à 11:05 UTC
Prévision valable du 14 à 12 UTC au 15 à 18 UTC
Vent 4 kt de nord-ouest
Visibilité 10 km ou plus
Quelques nuages à une hauteur de 3000 ft
Evoluant progressivement
du 14 à 21 UTC au 14 à 23 UTC
Vent 6 kt de est/sud-est
Evoluant progressivement
du 15 à 09 UTC au 15 à 12 UTC
Vent 4 kt de nord-ouest

TAF: RJOA 141105Z 1412/1518 32004KT 9999 FEW030 BECMG 1421/1423 12006KT BECMG 1509/1512 32004KT

Observations et prévisions météorologiques de plus de 4000 aéroports (messages METAR et TAF).

Les stations disponibles sont représentées par des disques jaunes et rouges sur la carte.

Passer la souris dessus pour voir le nom de la station.

Cliquer dessus pour voir les observations et prévisions météorologiques.

Pour changer de carte: cliquez sur les boutons verts avec une croix noire pour zoomer, sur le bouton vert avec un tiret pour effectuer un zoom arrière, ou sur les flèches vertes pour les cartes adjacentes.


METAR-TAF: